sensor_id;sensor_type;location;lat;lon;timestamp;pressure;altitude;pressure_sealevel;temperature;humidity
50011;BME280;35899;50.352;19.390;2022-12-13T00:01:47;97021.31;;;-2.92;100.00
50011;BME280;35899;50.352;19.390;2022-12-13T00:04:15;97023.07;;;-2.95;100.00
50011;BME280;35899;50.352;19.390;2022-12-13T00:06:41;97026.09;;;-2.97;100.00
50011;BME280;35899;50.352;19.390;2022-12-13T00:09:11;97026.92;;;-2.96;100.00
50011;BME280;35899;50.352;19.390;2022-12-13T00:11:39;97020.16;;;-2.97;100.00
50011;BME280;35899;50.352;19.390;2022-12-13T00:14:05;97020.16;;;-2.97;100.00
50011;BME280;35899;50.352;19.390;2022-12-13T00:16:31;97017.25;;;-2.98;100.00
50011;BME280;35899;50.352;19.390;2022-12-13T00:18:59;97023.59;;;-2.98;100.00
50011;BME280;35899;50.352;19.390;2022-12-13T00:21:28;97023.27;;;-3.01;100.00
50011;BME280;35899;50.352;19.390;2022-12-13T00:23:57;97026.33;;;-3.04;100.00
50011;BME280;35899;50.352;19.390;2022-12-13T00:26:27;97020.52;;;-3.08;100.00
50011;BME280;35899;50.352;19.390;2022-12-13T00:28:57;97021.37;;;-3.09;100.00
50011;BME280;35899;50.352;19.390;2022-12-13T00:31:26;97023.95;;;-3.10;100.00
50011;BME280;35899;50.352;19.390;2022-12-13T00:33:52;97026.12;;;-3.11;100.00
50011;BME280;35899;50.352;19.390;2022-12-13T00:36:18;97030.78;;;-3.12;100.00
50011;BME280;35899;50.352;19.390;2022-12-13T00:38:45;97036.27;;;-3.11;100.00
50011;BME280;35899;50.352;19.390;2022-12-13T00:41:18;97033.73;;;-3.11;100.00
50011;BME280;35899;50.352;19.390;2022-12-13T00:43:44;97035.83;;;-3.11;100.00
50011;BME280;35899;50.352;19.390;2022-12-13T00:46:14;97042.58;;;-3.10;100.00
50011;BME280;35899;50.352;19.390;2022-12-13T00:48:42;97037.50;;;-3.10;100.00
50011;BME280;35899;50.352;19.390;2022-12-13T00:51:10;97045.64;;;-3.13;100.00
50011;BME280;35899;50.352;19.390;2022-12-13T00:53:37;97044.41;;;-3.15;100.00
50011;BME280;35899;50.352;19.390;2022-12-13T00:56:08;97049.45;;;-3.13;100.00
50011;BME280;35899;50.352;19.390;2022-12-13T00:58:36;97045.64;;;-3.13;100.00
50011;BME280;35899;50.352;19.390;2022-12-13T01:01:04;97047.36;;;-3.14;100.00
50011;BME280;35899;50.352;19.390;2022-12-13T01:03:33;97044.00;;;-3.16;100.00
50011;BME280;35899;50.352;19.390;2022-12-13T01:05:59;97049.53;;;-3.17;100.00
50011;BME280;35899;50.352;19.390;2022-12-13T01:08:26;97050.84;;;-3.18;100.00
50011;BME280;35899;50.352;19.390;2022-12-13T01:10:53;97052.96;;;-3.18;100.00
50011;BME280;35899;50.352;19.390;2022-12-13T01:13:19;97048.85;;;-3.22;100.00
50011;BME280;35899;50.352;19.390;2022-12-13T01:15:46;97056.88;;;-3.22;100.00
50011;BME280;35899;50.352;19.390;2022-12-13T01:18:13;97057.37;;;-3.24;100.00
50011;BME280;35899;50.352;19.390;2022-12-13T01:20:40;97060.42;;;-3.28;100.00
50011;BME280;35899;50.352;19.390;2022-12-13T01:23:07;97060.47;;;-3.29;100.00
50011;BME280;35899;50.352;19.390;2022-12-13T01:25:36;97062.29;;;-3.33;100.00
50011;BME280;35899;50.352;19.390;2022-12-13T01:28:02;97069.53;;;-3.36;100.00
50011;BME280;35899;50.352;19.390;2022-12-13T01:30:29;97068.30;;;-3.37;100.00
50011;BME280;35899;50.352;19.390;2022-12-13T01:32:56;97057.43;;;-3.41;100.00
50011;BME280;35899;50.352;19.390;2022-12-13T01:35:22;97054.04;;;-3.41;100.00
50011;BME280;35899;50.352;19.390;2022-12-13T01:37:48;97064.19;;;-3.41;100.00
50011;BME280;35899;50.352;19.390;2022-12-13T01:40:15;97057.02;;;-3.42;100.00
50011;BME280;35899;50.352;19.390;2022-12-13T01:42:42;97057.06;;;-3.43;100.00
50011;BME280;35899;50.352;19.390;2022-12-13T01:45:24;97062.55;;;-3.42;100.00
50011;BME280;35899;50.352;19.390;2022-12-13T01:48:01;97058.77;;;-3.44;100.00
50011;BME280;35899;50.352;19.390;2022-12-13T01:50:33;97061.80;;;-3.46;100.00
50011;BME280;35899;50.352;19.390;2022-12-13T01:53:03;97062.62;;;-3.45;100.00
50011;BME280;35899;50.352;19.390;2022-12-13T01:55:33;97057.62;;;-3.48;100.00
50011;BME280;35899;50.352;19.390;2022-12-13T01:58:02;97063.62;;;-3.51;100.00
50011;BME280;35899;50.352;19.390;2022-12-13T02:00:32;97061.53;;;-3.51;100.00
50011;BME280;35899;50.352;19.390;2022-12-13T02:03:01;97073.33;;;-3.50;100.00
50011;BME280;35899;50.352;19.390;2022-12-13T02:05:44;97071.20;;;-3.49;100.00
50011;BME280;35899;50.352;19.390;2022-12-13T02:08:19;97064.44;;;-3.50;100.00
50011;BME280;35899;50.352;19.390;2022-12-13T02:10:46;97069.59;;;-3.52;100.00
50011;BME280;35899;50.352;19.390;2022-12-13T02:13:13;97070.00;;;-3.52;100.00
50011;BME280;35899;50.352;19.390;2022-12-13T02:19:28;97076.45;;;-3.56;100.00
50011;BME280;35899;50.352;19.390;2022-12-13T02:25:32;97079.53;;;-3.61;100.00
50011;BME280;35899;50.352;19.390;2022-12-13T02:31:15;97080.88;;;-3.64;100.00
50011;BME280;35899;50.352;19.390;2022-12-13T02:39:20;97075.02;;;-3.66;100.00
50011;BME280;35899;50.352;19.390;2022-12-13T02:41:53;97088.28;;;-3.71;100.00
50011;BME280;35899;50.352;19.390;2022-12-13T02:44:33;97085.77;;;-3.72;100.00
50011;BME280;35899;50.352;19.390;2022-12-13T02:47:14;97086.25;;;-3.75;100.00
50011;BME280;35899;50.352;19.390;2022-12-13T02:49:47;97094.23;;;-3.74;100.00
50011;BME280;35899;50.352;19.390;2022-12-13T02:52:17;97096.44;;;-3.76;100.00
50011;BME280;35899;50.352;19.390;2022-12-13T02:54:46;97101.50;;;-3.76;100.00
50011;BME280;35899;50.352;19.390;2022-12-13T02:57:33;97098.08;;;-3.75;100.00
50011;BME280;35899;50.352;19.390;2022-12-13T03:00:11;97099.34;;;-3.75;100.00
50011;BME280;35899;50.352;19.390;2022-12-13T03:02:53;97090.95;;;-3.77;100.00
50011;BME280;35899;50.352;19.390;2022-12-13T03:05:35;97092.77;;;-3.81;100.00
50011;BME280;35899;50.352;19.390;2022-12-13T03:11:17;97089.41;;;-3.83;100.00
50011;BME280;35899;50.352;19.390;2022-12-13T03:13:52;97090.67;;;-3.83;100.00
50011;BME280;35899;50.352;19.390;2022-12-13T03:16:31;97102.94;;;-3.82;100.00
50011;BME280;35899;50.352;19.390;2022-12-13T03:19:02;97095.81;;;-3.84;100.00
50011;BME280;35899;50.352;19.390;2022-12-13T03:24:07;97102.22;;;-3.87;100.00
50011;BME280;35899;50.352;19.390;2022-12-13T03:26:34;97095.02;;;-3.86;100.00
50011;BME280;35899;50.352;19.390;2022-12-13T03:29:06;97095.36;;;-3.84;100.00
50011;BME280;35899;50.352;19.390;2022-12-13T03:31:32;97099.96;;;-3.82;100.00
50011;BME280;35899;50.352;19.390;2022-12-13T03:33:59;97103.73;;;-3.80;100.00
50011;BME280;35899;50.352;19.390;2022-12-13T03:36:25;97103.32;;;-3.81;100.00
50011;BME280;35899;50.352;19.390;2022-12-13T03:38:53;97101.58;;;-3.79;100.00
50011;BME280;35899;50.352;19.390;2022-12-13T03:41:22;97103.70;;;-3.79;100.00
50011;BME280;35899;50.352;19.390;2022-12-13T03:43:51;97106.23;;;-3.79;100.00
50011;BME280;35899;50.352;19.390;2022-12-13T03:46:17;97115.96;;;-3.80;100.00
50011;BME280;35899;50.352;19.390;2022-12-13T03:48:44;97115.93;;;-3.78;100.00
50011;BME280;35899;50.352;19.390;2022-12-13T03:51:10;97112.95;;;-3.78;100.00
50011;BME280;35899;50.352;19.390;2022-12-13T03:53:36;97115.90;;;-3.77;100.00
50011;BME280;35899;50.352;19.390;2022-12-13T03:56:04;97117.16;;;-3.77;100.00
50011;BME280;35899;50.352;19.390;2022-12-13T03:58:33;97120.08;;;-3.76;100.00
50011;BME280;35899;50.352;19.390;2022-12-13T04:00:59;97116.69;;;-3.75;100.00
50011;BME280;35899;50.352;19.390;2022-12-13T04:03:26;97121.80;;;-3.76;100.00
50011;BME280;35899;50.352;19.390;2022-12-13T04:05:52;97123.50;;;-3.77;100.00
50011;BME280;35899;50.352;19.390;2022-12-13T04:08:19;97127.69;;;-3.76;100.00
50011;BME280;35899;50.352;19.390;2022-12-13T04:10:45;97135.33;;;-3.77;100.00
50011;BME280;35899;50.352;19.390;2022-12-13T04:13:12;97127.72;;;-3.77;100.00
50011;BME280;35899;50.352;19.390;2022-12-13T04:15:38;97128.95;;;-3.76;100.00
50011;BME280;35899;50.352;19.390;2022-12-13T04:18:05;97125.12;;;-3.74;100.00
50011;BME280;35899;50.352;19.390;2022-12-13T04:20:31;97122.17;;;-3.75;100.00
50011;BME280;35899;50.352;19.390;2022-12-13T04:22:57;97126.93;;;-3.79;100.00
50011;BME280;35899;50.352;19.390;2022-12-13T04:25:24;97122.75;;;-3.80;100.00
50011;BME280;35899;50.352;19.390;2022-12-13T04:27:50;97121.07;;;-3.81;100.00
50011;BME280;35899;50.352;19.390;2022-12-13T04:30:17;97130.39;;;-3.82;100.00
50011;BME280;35899;50.352;19.390;2022-12-13T04:32:43;97122.81;;;-3.83;100.00
50011;BME280;35899;50.352;19.390;2022-12-13T04:35:10;97134.23;;;-3.83;100.00
50011;BME280;35899;50.352;19.390;2022-12-13T04:37:36;97135.91;;;-3.82;100.00
50011;BME280;35899;50.352;19.390;2022-12-13T04:40:03;97140.05;;;-3.80;100.00
50011;BME280;35899;50.352;19.390;2022-12-13T04:42:30;97133.23;;;-3.78;100.00
50011;BME280;35899;50.352;19.390;2022-12-13T04:44:57;97139.20;;;-3.79;100.00
50011;BME280;35899;50.352;19.390;2022-12-13T04:47:23;97131.62;;;-3.80;100.00
50011;BME280;35899;50.352;19.390;2022-12-13T04:49:50;97131.62;;;-3.80;100.00
50011;BME280;35899;50.352;19.390;2022-12-13T04:52:16;97131.66;;;-3.82;100.00
50011;BME280;35899;50.352;19.390;2022-12-13T04:54:42;97127.03;;;-3.82;100.00
50011;BME280;35899;50.352;19.390;2022-12-13T04:57:10;97132.10;;;-3.82;100.00
50011;BME280;35899;50.352;19.390;2022-12-13T04:59:36;97129.16;;;-3.83;100.00
50011;BME280;35899;50.352;19.390;2022-12-13T05:02:04;97132.16;;;-3.85;100.00
50011;BME280;35899;50.352;19.390;2022-12-13T05:04:32;97129.19;;;-3.85;100.00
50011;BME280;35899;50.352;19.390;2022-12-13T05:06:58;97130.42;;;-3.83;100.00
50011;BME280;35899;50.352;19.390;2022-12-13T05:09:24;97131.25;;;-3.83;100.00
50011;BME280;35899;50.352;19.390;2022-12-13T05:11:51;97130.83;;;-3.82;100.00
50011;BME280;35899;50.352;19.390;2022-12-13T05:14:17;97133.75;;;-3.81;100.00
50011;BME280;35899;50.352;19.390;2022-12-13T05:16:44;97132.48;;;-3.81;100.00
50011;BME280;35899;50.352;19.390;2022-12-13T05:19:10;97132.10;;;-3.82;100.00
50011;BME280;35899;50.352;19.390;2022-12-13T05:21:36;97133.44;;;-3.85;100.00
50011;BME280;35899;50.352;19.390;2022-12-13T05:24:03;97136.31;;;-3.83;100.00
50011;BME280;35899;50.352;19.390;2022-12-13T05:26:30;97131.72;;;-3.85;100.00
50011;BME280;35899;50.352;19.390;2022-12-13T05:28:57;97129.59;;;-3.84;100.00
50011;BME280;35899;50.352;19.390;2022-12-13T05:31:24;97131.72;;;-3.85;100.00
50011;BME280;35899;50.352;19.390;2022-12-13T05:33:51;97125.83;;;-3.85;100.00
50011;BME280;35899;50.352;19.390;2022-12-13T05:36:17;97131.31;;;-3.84;100.00
50011;BME280;35899;50.352;19.390;2022-12-13T05:38:44;97131.78;;;-3.86;100.00
50011;BME280;35899;50.352;19.390;2022-12-13T05:41:14;97130.94;;;-3.87;100.00
50011;BME280;35899;50.352;19.390;2022-12-13T05:43:41;97138.06;;;-3.85;100.00
50011;BME280;35899;50.352;19.390;2022-12-13T05:46:07;97135.52;;;-3.85;100.00
50011;BME280;35899;50.352;19.390;2022-12-13T05:48:33;97142.72;;;-3.84;100.00
50011;BME280;35899;50.352;19.390;2022-12-13T05:51:00;97137.27;;;-3.87;100.00
50011;BME280;35899;50.352;19.390;2022-12-13T05:53:27;97136.86;;;-3.86;100.00
50011;BME280;35899;50.352;19.390;2022-12-13T05:55:53;97135.97;;;-3.85;100.00
50011;BME280;35899;50.352;19.390;2022-12-13T05:58:19;97137.65;;;-3.84;100.00
50011;BME280;35899;50.352;19.390;2022-12-13T06:00:45;97141.04;;;-3.85;100.00
50011;BME280;35899;50.352;19.390;2022-12-13T06:03:12;97142.72;;;-3.84;100.00
50011;BME280;35899;50.352;19.390;2022-12-13T06:05:38;97145.67;;;-3.85;100.00
50011;BME280;35899;50.352;19.390;2022-12-13T06:08:05;97141.93;;;-3.86;100.00
50011;BME280;35899;50.352;19.390;2022-12-13T06:10:31;97144.84;;;-3.85;100.00
50011;BME280;35899;50.352;19.390;2022-12-13T06:12:58;97144.02;;;-3.86;100.00
50011;BME280;35899;50.352;19.390;2022-12-13T06:15:25;97143.58;;;-3.85;100.00
50011;BME280;35899;50.352;19.390;2022-12-13T06:17:51;97145.19;;;-3.83;100.00
50011;BME280;35899;50.352;19.390;2022-12-13T06:20:17;97145.57;;;-3.80;100.00
50011;BME280;35899;50.352;19.390;2022-12-13T06:22:44;97143.92;;;-3.83;100.00
50011;BME280;35899;50.352;19.390;2022-12-13T06:25:11;97150.70;;;-3.83;100.00
50011;BME280;35899;50.352;19.390;2022-12-13T06:27:37;97155.81;;;-3.85;100.00
50011;BME280;35899;50.352;19.390;2022-12-13T06:30:04;97152.07;;;-3.86;100.00
50011;BME280;35899;50.352;19.390;2022-12-13T06:32:30;97157.97;;;-3.86;100.00
50011;BME280;35899;50.352;19.390;2022-12-13T06:34:57;97160.47;;;-3.84;100.00
50011;BME280;35899;50.352;19.390;2022-12-13T06:37:23;97161.64;;;-3.81;100.00
50011;BME280;35899;50.352;19.390;2022-12-13T06:39:49;97163.77;;;-3.81;100.00
50011;BME280;35899;50.352;19.390;2022-12-13T06:42:17;97162.50;;;-3.81;100.00
50011;BME280;35899;50.352;19.390;2022-12-13T06:44:44;97162.88;;;-3.80;100.00
50011;BME280;35899;50.352;19.390;2022-12-13T06:47:10;97168.77;;;-3.79;100.00
50011;BME280;35899;50.352;19.390;2022-12-13T06:49:37;97175.08;;;-3.78;100.00
50011;BME280;35899;50.352;19.390;2022-12-13T06:52:04;97172.95;;;-3.77;100.00
50011;BME280;35899;50.352;19.390;2022-12-13T06:54:30;97179.23;;;-3.75;100.00
50011;BME280;35899;50.352;19.390;2022-12-13T06:56:57;97182.18;;;-3.74;100.00
50011;BME280;35899;50.352;19.390;2022-12-13T06:59:23;97182.59;;;-3.73;100.00
50011;BME280;35899;50.352;19.390;2022-12-13T07:01:49;97188.02;;;-3.70;100.00
50011;BME280;35899;50.352;19.390;2022-12-13T07:04:16;97192.26;;;-3.71;100.00
50011;BME280;35899;50.352;19.390;2022-12-13T07:06:42;97191.81;;;-3.70;100.00
50011;BME280;35899;50.352;19.390;2022-12-13T07:09:09;97196.00;;;-3.69;100.00
50011;BME280;35899;50.352;19.390;2022-12-13T07:11:35;97196.37;;;-3.67;100.00
50011;BME280;35899;50.352;19.390;2022-12-13T07:14:02;97188.36;;;-3.68;100.00
50011;BME280;35899;50.352;19.390;2022-12-13T07:16:28;97200.19;;;-3.67;100.00
50011;BME280;35899;50.352;19.390;2022-12-13T07:18:57;97196.37;;;-3.67;100.00
50011;BME280;35899;50.352;19.390;2022-12-13T07:21:24;97194.28;;;-3.67;100.00
50011;BME280;35899;50.352;19.390;2022-12-13T07:23:51;97203.52;;;-3.65;100.00
50011;BME280;35899;50.352;19.390;2022-12-13T07:26:18;97202.21;;;-3.63;100.00
50011;BME280;35899;50.352;19.390;2022-12-13T07:28:45;97210.17;;;-3.61;100.00
50011;BME280;35899;50.352;19.390;2022-12-13T07:31:13;97216.48;;;-3.59;100.00
50011;BME280;35899;50.352;19.390;2022-12-13T07:33:39;97216.34;;;-3.55;100.00
50011;BME280;35899;50.352;19.390;2022-12-13T07:36:10;97214.19;;;-3.52;100.00
50011;BME280;35899;50.352;19.390;2022-12-13T07:38:40;97220.47;;;-3.50;100.00
50011;BME280;35899;50.352;19.390;2022-12-13T07:41:08;97222.53;;;-3.48;100.00
50011;BME280;35899;50.352;19.390;2022-12-13T07:43:34;97219.95;;;-3.47;100.00
50011;BME280;35899;50.352;19.390;2022-12-13T07:46:04;97222.36;;;-3.41;100.00
50011;BME280;35899;50.352;19.390;2022-12-13T07:48:31;97229.78;;;-3.33;100.00
50011;BME280;35899;50.352;19.390;2022-12-13T07:51:03;97224.05;;;-3.25;100.00
50011;BME280;35899;50.352;19.390;2022-12-13T07:53:31;97227.34;;;-3.21;100.00
50011;BME280;35899;50.352;19.390;2022-12-13T07:56:06;97225.95;;;-3.17;100.00
50011;BME280;35899;50.352;19.390;2022-12-13T07:58:34;97234.73;;;-3.12;100.00
50011;BME280;35899;50.352;19.390;2022-12-13T08:01:06;97234.59;;;-3.07;100.00
50011;BME280;35899;50.352;19.390;2022-12-13T08:03:34;97234.63;;;-3.09;100.00
50011;BME280;35899;50.352;19.390;2022-12-13T08:08:35;97239.05;;;-3.16;100.00
50011;BME280;35899;50.352;19.390;2022-12-13T08:11:11;97237.06;;;-3.21;100.00
50011;BME280;35899;50.352;19.390;2022-12-13T08:13:36;97244.84;;;-3.27;100.00
50011;BME280;35899;50.352;19.390;2022-12-13T08:16:05;97242.20;;;-3.24;100.00
50011;BME280;35899;50.352;19.390;2022-12-13T08:18:33;97237.88;;;-3.20;100.00
50011;BME280;35899;50.352;19.390;2022-12-13T08:21:02;97237.09;;;-3.22;99.93
50011;BME280;35899;50.352;19.390;2022-12-13T08:23:31;97241.28;;;-3.20;100.00
50011;BME280;35899;50.352;19.390;2022-12-13T08:25:59;97244.61;;;-3.18;100.00
50011;BME280;35899;50.352;19.390;2022-12-13T08:28:27;97248.28;;;-3.13;99.82
50011;BME280;35899;50.352;19.390;2022-12-13T08:30:54;97255.38;;;-3.09;100.00
50011;BME280;35899;50.352;19.390;2022-12-13T08:33:21;97249.03;;;-3.09;100.00
50011;BME280;35899;50.352;19.390;2022-12-13T08:35:48;97258.36;;;-3.10;99.97
50011;BME280;35899;50.352;19.390;2022-12-13T08:38:14;97255.86;;;-3.11;100.00
50011;BME280;35899;50.352;19.390;2022-12-13T08:40:40;97262.31;;;-3.16;99.75
50011;BME280;35899;50.352;19.390;2022-12-13T08:43:07;97258.59;;;-3.19;99.47
50011;BME280;35899;50.352;19.390;2022-12-13T08:45:33;97266.66;;;-3.20;99.18
50011;BME280;35899;50.352;19.390;2022-12-13T08:48:00;97272.66;;;-3.24;98.97
50011;BME280;35899;50.352;19.390;2022-12-13T08:50:28;97268.47;;;-3.25;99.26
50011;BME280;35899;50.352;19.390;2022-12-13T08:52:55;97268.86;;;-3.24;99.04
50011;BME280;35899;50.352;19.390;2022-12-13T08:55:21;97277.30;;;-3.22;99.04
50011;BME280;35899;50.352;19.390;2022-12-13T08:57:47;97270.05;;;-3.21;98.79
50011;BME280;35899;50.352;19.390;2022-12-13T09:00:16;97274.27;;;-3.20;98.72
50011;BME280;35899;50.352;19.390;2022-12-13T09:02:44;97277.12;;;-3.16;98.38
50011;BME280;35899;50.352;19.390;2022-12-13T09:05:11;97278.23;;;-3.09;98.32
50011;BME280;35899;50.352;19.390;2022-12-13T09:07:38;97275.56;;;-3.05;98.42
50011;BME280;35899;50.352;19.390;2022-12-13T09:10:06;97273.81;;;-3.03;97.79
50011;BME280;35899;50.352;19.390;2022-12-13T09:12:34;97274.08;;;-2.97;98.06
50011;BME280;35899;50.352;19.390;2022-12-13T09:15:00;97273.16;;;-2.93;97.68
50011;BME280;35899;50.352;19.390;2022-12-13T09:17:28;97276.80;;;-2.87;97.54
50011;BME280;35899;50.352;19.390;2022-12-13T09:19:56;97272.71;;;-2.92;96.33
50011;BME280;35899;50.352;19.390;2022-12-13T09:22:22;97276.17;;;-2.95;96.54
50011;BME280;35899;50.352;19.390;2022-12-13T09:24:48;97275.35;;;-2.97;96.11
50011;BME280;35899;50.352;19.390;2022-12-13T09:27:17;97272.47;;;-3.00;95.49
50011;BME280;35899;50.352;19.390;2022-12-13T09:29:44;97274.16;;;-2.99;95.68
50011;BME280;35899;50.352;19.390;2022-12-13T09:32:10;97279.92;;;-2.93;95.45
50011;BME280;35899;50.352;19.390;2022-12-13T09:34:37;97279.37;;;-2.88;95.17
50011;BME280;35899;50.352;19.390;2022-12-13T09:37:05;97269.03;;;-2.82;95.52
50011;BME280;35899;50.352;19.390;2022-12-13T09:39:31;97283.69;;;-2.76;95.20
50011;BME280;35899;50.352;19.390;2022-12-13T09:41:58;97285.84;;;-2.62;95.22
50011;BME280;35899;50.352;19.390;2022-12-13T09:44:27;97280.84;;;-2.50;95.11
50011;BME280;35899;50.352;19.390;2022-12-13T09:46:57;97277.22;;;-2.41;95.05
50011;BME280;35899;50.352;19.390;2022-12-13T09:49:34;97274.64;;;-2.40;93.47
50011;BME280;35899;50.352;19.390;2022-12-13T09:52:05;97275.95;;;-2.26;93.96
50011;BME280;35899;50.352;19.390;2022-12-13T09:54:34;97276.55;;;-2.18;93.53
50011;BME280;35899;50.352;19.390;2022-12-13T09:57:00;97281.94;;;-2.14;93.32
50011;BME280;35899;50.352;19.390;2022-12-13T09:59:34;97275.58;;;-2.14;93.21
50011;BME280;35899;50.352;19.390;2022-12-13T10:02:42;97280.45;;;-2.21;92.78
50011;BME280;35899;50.352;19.390;2022-12-13T10:04:38;97275.36;;;-2.21;92.79
50011;BME280;35899;50.352;19.390;2022-12-13T10:07:14;97272.81;;;-2.21;92.56
50011;BME280;35899;50.352;19.390;2022-12-13T10:09:47;97273.33;;;-2.10;93.16
50011;BME280;35899;50.352;19.390;2022-12-13T10:12:15;97273.88;;;-2.00;93.19
50011;BME280;35899;50.352;19.390;2022-12-13T10:14:53;97270.20;;;-1.90;92.61
50011;BME280;35899;50.352;19.390;2022-12-13T10:17:26;97268.39;;;-1.86;92.09
50011;BME280;35899;50.352;19.390;2022-12-13T10:19:55;97268.12;;;-1.77;92.38
50011;BME280;35899;50.352;19.390;2022-12-13T10:22:21;97272.11;;;-1.70;92.09
50011;BME280;35899;50.352;19.390;2022-12-13T10:24:56;97268.20;;;-1.67;92.08
50011;BME280;35899;50.352;19.390;2022-12-13T10:32:52;97268.48;;;-1.36;90.42
50011;BME280;35899;50.352;19.390;2022-12-13T10:35:35;97263.59;;;-1.42;90.64
50011;BME280;35899;50.352;19.390;2022-12-13T10:40:52;97261.83;;;-1.40;91.00
50011;BME280;35899;50.352;19.390;2022-12-13T10:43:22;97261.97;;;-1.45;90.84
50011;BME280;35899;50.352;19.390;2022-12-13T10:48:48;97261.84;;;-1.53;91.07
50011;BME280;35899;50.352;19.390;2022-12-13T10:51:14;97259.67;;;-1.52;91.04
50011;BME280;35899;50.352;19.390;2022-12-13T10:56:20;97255.23;;;-1.86;89.98
50011;BME280;35899;50.352;19.390;2022-12-13T10:58:51;97253.75;;;-1.93;90.31
50011;BME280;35899;50.352;19.390;2022-12-13T11:01:22;97257.02;;;-2.03;90.66
50011;BME280;35899;50.352;19.390;2022-12-13T11:04:04;97259.64;;;-2.06;90.55
50011;BME280;35899;50.352;19.390;2022-12-13T11:06:44;97257.25;;;-2.10;91.02
50011;BME280;35899;50.352;19.390;2022-12-13T11:11:56;97256.48;;;-2.27;90.66
50011;BME280;35899;50.352;19.390;2022-12-13T11:14:33;97253.83;;;-2.38;90.49
50011;BME280;35899;50.352;19.390;2022-12-13T11:17:07;97256.07;;;-2.42;91.12
50011;BME280;35899;50.352;19.390;2022-12-13T11:19:43;97252.63;;;-2.41;91.72
50011;BME280;35899;50.352;19.390;2022-12-13T11:22:21;97250.50;;;-2.40;91.60
50011;BME280;35899;50.352;19.390;2022-12-13T11:24:51;97241.72;;;-2.44;91.46
50011;BME280;35899;50.352;19.390;2022-12-13T11:28:54;97244.23;;;-2.43;91.64
50011;BME280;35899;50.352;19.390;2022-12-13T11:33:37;97246.46;;;-2.32;91.60
50011;BME280;35899;50.352;19.390;2022-12-13T11:39:31;97246.61;;;-2.23;91.23
50011;BME280;35899;50.352;19.390;2022-12-13T11:45:11;97244.44;;;-2.21;91.08
50011;BME280;35899;50.352;19.390;2022-12-13T11:56:06;97238.09;;;-2.07;91.10
50011;BME280;35899;50.352;19.390;2022-12-13T12:04:49;97244.77;;;-1.90;90.77
50011;BME280;35899;50.352;19.390;2022-12-13T12:07:20;97244.56;;;-1.84;90.65
50011;BME280;35899;50.352;19.390;2022-12-13T12:10:32;97244.03;;;-1.80;90.56
50011;BME280;35899;50.352;19.390;2022-12-13T12:12:50;97251.75;;;-1.83;90.23
50011;BME280;35899;50.352;19.390;2022-12-13T12:15:19;97252.23;;;-1.85;90.53
50011;BME280;35899;50.352;19.390;2022-12-13T12:17:51;97256.41;;;-1.96;89.71
50011;BME280;35899;50.352;19.390;2022-12-13T12:20:31;97262.63;;;-2.06;89.50
50011;BME280;35899;50.352;19.390;2022-12-13T12:25:56;97257.97;;;-2.20;89.49
50011;BME280;35899;50.352;19.390;2022-12-13T12:28:53;97262.46;;;-2.28;89.60
50011;BME280;35899;50.352;19.390;2022-12-13T12:55:40;97258.72;;;-2.31;89.77
50011;BME280;35899;50.352;19.390;2022-12-13T12:58:36;97258.72;;;-2.31;89.11
50011;BME280;35899;50.352;19.390;2022-12-13T13:01:31;97263.33;;;-2.44;88.55
50011;BME280;35899;50.352;19.390;2022-12-13T13:04:02;97258.77;;;-2.48;88.82
50011;BME280;35899;50.352;19.390;2022-12-13T13:06:45;97261.48;;;-2.54;88.73
50011;BME280;35899;50.352;19.390;2022-12-13T13:09:16;97248.44;;;-2.57;88.92
50011;BME280;35899;50.352;19.390;2022-12-13T13:11:44;97246.39;;;-2.59;88.93
50011;BME280;35899;50.352;19.390;2022-12-13T13:14:30;97257.03;;;-2.61;88.63
50011;BME280;35899;50.352;19.390;2022-12-13T13:22:43;97236.92;;;-2.68;89.17
50011;BME280;35899;50.352;19.390;2022-12-13T13:25:15;97246.31;;;-2.57;89.52
50011;BME280;35899;50.352;19.390;2022-12-13T13:27:51;97253.42;;;-2.53;89.12
50011;BME280;35899;50.352;19.390;2022-12-13T13:30:26;97256.85;;;-2.54;89.13
50011;BME280;35899;50.352;19.390;2022-12-13T13:32:55;97263.95;;;-2.51;89.39
50011;BME280;35899;50.352;19.390;2022-12-13T13:40:53;97268.50;;;-2.62;89.69
50011;BME280;35899;50.352;19.390;2022-12-13T13:43:28;97275.34;;;-2.64;90.01
50011;BME280;35899;50.352;19.390;2022-12-13T13:46:09;97276.41;;;-2.73;89.79
50011;BME280;35899;50.352;19.390;2022-12-13T14:22:11;97295.41;;;-3.54;91.17
50011;BME280;35899;50.352;19.390;2022-12-13T14:24:14;97288.74;;;-3.58;91.53
50011;BME280;35899;50.352;19.390;2022-12-13T14:27:05;97293.02;;;-3.60;91.78
50011;BME280;35899;50.352;19.390;2022-12-13T14:29:30;97299.90;;;-3.65;91.76
50011;BME280;35899;50.352;19.390;2022-12-13T14:31:58;97305.92;;;-3.69;91.59
50011;BME280;35899;50.352;19.390;2022-12-13T14:34:29;97305.95;;;-3.70;91.86
50011;BME280;35899;50.352;19.390;2022-12-13T14:37:02;97311.88;;;-3.71;91.96
50011;BME280;35899;50.352;19.390;2022-12-13T14:39:30;97307.69;;;-3.72;92.20
50011;BME280;35899;50.352;19.390;2022-12-13T14:41:58;97314.53;;;-3.76;92.19
50011;BME280;35899;50.352;19.390;2022-12-13T14:44:28;97316.65;;;-3.77;92.38
50011;BME280;35899;50.352;19.390;2022-12-13T14:46:58;97317.06;;;-3.76;92.62
50011;BME280;35899;50.352;19.390;2022-12-13T14:49:35;97319.66;;;-3.79;92.47
50011;BME280;35899;50.352;19.390;2022-12-13T14:52:16;97311.25;;;-3.81;92.48
50011;BME280;35899;50.352;19.390;2022-12-13T14:54:56;97314.67;;;-3.82;92.61
50011;BME280;35899;50.352;19.390;2022-12-13T14:57:29;97310.87;;;-3.82;92.68
50011;BME280;35899;50.352;19.390;2022-12-13T14:59:56;97310.93;;;-3.85;92.71
50011;BME280;35899;50.352;19.390;2022-12-13T15:02:33;97309.66;;;-3.85;93.15
50011;BME280;35899;50.352;19.390;2022-12-13T15:05:00;97310.55;;;-3.86;93.04
50011;BME280;35899;50.352;19.390;2022-12-13T15:10:20;97322.87;;;-3.90;92.96
50011;BME280;35899;50.352;19.390;2022-12-13T15:12:51;97318.65;;;-3.90;93.14
50011;BME280;35899;50.352;19.390;2022-12-13T15:15:22;97315.26;;;-3.90;93.19